Portada
METAR-TAF:

METAR-TAF

Aeropuertos :

Dakar, Senegal

Aeropuerto Internacional de Dakar-Yoff/Léopold Sédar Senghor

latitud: 14-44N, longitud: 017-30W, altitud: 27 m

Observación

El informe se hizo hace 35 minutos, a las 06:30 UTC
Viento 12 kt del norte
Temperatura 27°C
Humedad 84%
Presión 1012 hPa
Visibilidad 10 km o más
Escasas nubes a una altura de 1000 ft

METAR: GOOY 240630Z 36012KT 9999 FEW010 27/24 Q1012 NOSIG

Hora: 07:05 (07:05 UTC)

Pronóstico

El informe se hizo hace 13 horas y 35 minutos, a las 17:30 UTC
Pronóstico válido del 23 a las 18 UTC al 24 a las 24 UTC
Viento 8 kt del noroeste
Visibilidad 10 km o más
Nubes dispersas a una altura de 1000 ft

TAF: GOOY 231730Z 2318/2424 32008KT 9999 SCT010

Observaciones y pronósticos meteorológicos de más de 4000 aeropuertos (mensajes METAR y TAF).

Los puntos amarillos y rojos representan las estaciones disponibles.

Ponga el ratón en el punto deseado para ver el nombre de la estación.

Haga clic para ver las observaciones y los pronósticos meteorológicos.

Para cambiar el mapa : haga clic en los botones verdes con una cruz de color negro para hacer un zoom, en el botón verde con un guión para alejar o en las flechas verdes para mapas adyacentes.


METAR-TAF: